| time (UTC) | temp C | wind direction | speed KPH | gust KPH | rain 1hr cm | rain 24hr cm | rain mn cm | humidity % | barometer mb |
| 20260507050600 | 13 | 0.0 | 0.0 | 0.00 | 0.20 | 0.00 | 94 | 1006.4 | |
| 20260507045539 | 13 | 0.0 | 3.2 | 0.00 | 0.20 | 0.00 | 94 | 1006.3 | |
| 20260507044539 | 13 | 0.0 | 6.4 | 0.00 | 0.20 | 0.00 | 95 | 1006.4 | |
| 20260507043539 | 13 | 0.0 | 4.8 | 0.00 | 0.20 | 0.00 | 95 | 1006.4 | |
| 20260507042538 | 13 | 180 | 1.6 | 8.0 | 0.00 | 0.20 | 0.00 | 95 | 1006.2 |
| 20260507041539 | 14 | 0.0 | 0.0 | 0.00 | 0.20 | 0.00 | 96 | 1006.4 | |
| 20260507040538 | 14 | 0.0 | 4.8 | 0.03 | 0.20 | 0.00 | 96 | 1006.3 | |
| 20260507035537 | 14 | 0.0 | 6.4 | 0.03 | 0.20 | 0.20 | 96 | 1006.4 | |
| 20260507034537 | 15 | 135 | 1.6 | 9.7 | 0.03 | 0.20 | 0.20 | 96 | 1006.4 |
| 20260507033537 | 15 | 0.0 | 0.0 | 0.03 | 0.20 | 0.20 | 97 | 1006.1 | |
| 20260507032537 | 15 | 0.0 | 6.4 | 0.03 | 0.20 | 0.20 | 97 | 1005.9 | |
| 20260507031537 | 15 | 0.0 | 4.8 | 0.03 | 0.20 | 0.20 | 97 | 1005.8 | |
| 20260507030537 | 15 | 0.0 | 0.0 | 0.00 | 0.18 | 0.18 | 97 | 1005.7 | |
| 20260507025537 | 15 | 0.0 | 1.6 | 0.00 | 0.18 | 0.18 | 97 | 1005.5 | |
| 20260507024538 | 15 | 0.0 | 0.0 | 0.00 | 0.18 | 0.18 | 97 | 1005.1 | |
| 20260507023537 | 15 | 0.0 | 0.0 | 0.00 | 0.18 | 0.18 | 97 | 1005.2 | |
| 20260507022537 | 15 | 0.0 | 3.2 | 0.00 | 0.18 | 0.18 | 97 | 1005.3 | |
| 20260507021537 | 15 | 0.0 | 4.8 | 0.00 | 0.18 | 0.18 | 97 | 1005.3 | |
| 20260507020537 | 15 | 0.0 | 0.0 | 0.00 | 0.18 | 0.18 | 97 | 1005.2 | |
| 20260507015537 | 15 | 0.0 | 0.0 | 0.00 | 0.18 | 0.18 | 97 | 1005.2 | |
| 20260507014558 | 15 | 0.0 | 3.2 | 0.00 | 0.18 | 0.18 | 97 | 1005.2 | |
| 20260507013537 | 15 | 0.0 | 0.0 | 0.00 | 0.18 | 0.18 | 96 | 1005.1 | |
| 20260507012537 | 15 | 0.0 | 1.6 | 0.00 | 0.18 | 0.18 | 96 | 1005.2 | |
| 20260507011558 | 15 | 0.0 | 4.8 | 0.00 | 0.18 | 0.18 | 96 | 1005.2 | |
| 20260507010537 | 15 | 0.0 | 4.8 | 0.00 | 0.18 | 0.18 | 96 | 1005.3 | |
| 20260507005537 | 15 | 0.0 | 1.6 | 0.00 | 0.18 | 0.18 | 96 | 1005.3 | |
| 20260507004558 | 15 | 0.0 | 1.6 | 0.00 | 0.18 | 0.18 | 96 | 1005.4 | |
| 20260507003537 | 15 | 0.0 | 4.8 | 0.00 | 0.18 | 0.18 | 96 | 1005.3 | |
| 20260507002537 | 15 | 0.0 | 0.0 | 0.00 | 0.18 | 0.18 | 96 | 1005.2 | |
| 20260507001537 | 15 | 0.0 | 3.2 | 0.00 | 0.18 | 0.18 | 96 | 1005.2 | |
| 20260507000537 | 15 | 0.0 | 0.0 | 0.03 | 0.18 | 0.18 | 96 | 1005.1 | |
| 20260506235537 | 15 | 0.0 | 0.0 | 0.05 | 0.18 | 0.18 | 96 | 1004.9 | |
| 20260506234557 | 15 | 0.0 | 0.0 | 0.08 | 0.18 | 0.18 | 96 | 1004.9 | |
| 20260506233537 | 15 | 0.0 | 0.0 | 0.08 | 0.18 | 0.18 | 96 | 1004.9 | |
| 20260506232537 | 15 | 0.0 | 0.0 | 0.08 | 0.18 | 0.18 | 96 | 1004.9 | |
| 20260506231537 | 15 | 0.0 | 0.0 | 0.08 | 0.18 | 0.18 | 95 | 1004.8 | |
| 20260506230537 | 15 | 0.0 | 0.0 | 0.05 | 0.15 | 0.15 | 95 | 1004.9 | |
| 20260506225537 | 16 | 0.0 | 0.0 | 0.03 | 0.13 | 0.13 | 95 | 1004.9 | |
| 20260506224557 | 16 | 0.0 | 0.0 | 0.00 | 0.10 | 0.10 | 95 | 1005.1 | |
| 20260506223537 | 16 | 0.0 | 3.2 | 0.00 | 0.10 | 0.10 | 95 | 1005.1 | |
| 20260506222537 | 16 | 0.0 | 4.8 | 0.00 | 0.10 | 0.10 | 95 | 1005.1 | |
| 20260506221537 | 16 | 0.0 | 0.0 | 0.00 | 0.10 | 0.10 | 95 | 1005.2 | |
| 20260506220537 | 16 | 0.0 | 3.2 | 0.00 | 0.10 | 0.10 | 94 | 1005.4 | |
| 20260506215537 | 16 | 0.0 | 0.0 | 0.03 | 0.10 | 0.10 | 94 | 1005.3 | |
| 20260506214537 | 16 | 0.0 | 3.2 | 0.03 | 0.10 | 0.10 | 94 | 1005.3 | |
| 20260506213537 | 16 | 90 | 1.6 | 3.2 | 0.03 | 0.10 | 0.10 | 94 | 1005.6 |
| 20260506212537 | 16 | 0.0 | 0.0 | 0.03 | 0.10 | 0.10 | 94 | 1005.6 | |
| 20260506211537 | 16 | 0.0 | 0.0 | 0.03 | 0.10 | 0.10 | 94 | 1005.7 | |
| 20260506210537 | 16 | 90 | 1.6 | 4.8 | 0.03 | 0.10 | 0.10 | 93 | 1005.8 |
| 20260506205557 | 16 | 0.0 | 4.8 | 0.03 | 0.08 | 0.08 | 93 | 1005.9 | |
| 20260506204537 | 16 | 90 | 1.6 | 6.4 | 0.03 | 0.08 | 0.08 | 93 | 1005.9 |
| 20260506203537 | 16 | 0.0 | 3.2 | 0.03 | 0.08 | 0.08 | 93 | 1006.0 | |
| 20260506202537 | 16 | 0.0 | 3.2 | 0.05 | 0.08 | 0.08 | 92 | 1006.1 | |
| 20260506201617 | 16 | 90 | 1.6 | 6.4 | 0.08 | 0.08 | 0.08 | 91 | 1006.1 |
| 20260506200537 | 16 | 90 | 1.6 | 4.8 | 0.08 | 0.08 | 0.08 | 91 | 1006.1 |
| 20260506195537 | 17 | 90 | 1.6 | 6.4 | 0.05 | 0.05 | 0.05 | 90 | 1006.1 |
| 20260506194537 | 17 | 90 | 1.6 | 4.8 | 0.05 | 0.05 | 0.05 | 89 | 1005.9 |
| 20260506193634 | 17 | 0.0 | 0.0 | 0.05 | 0.05 | 0.05 | 88 | 1006.1 | |
| 20260506192557 | 18 | 0.0 | 3.2 | 0.03 | 0.03 | 0.03 | 86 | 1006.0 | |
| 20260506191557 | 18 | 0.0 | 0.0 | 0.00 | 0.00 | 0.00 | 85 | 1006.0 | |
| 20260506190537 | 18 | 0.0 | 3.2 | 0.00 | 0.00 | 0.00 | 83 | 1006.0 | |
| 20260506185537 | 19 | 113 | 1.6 | 4.8 | 0.00 | 0.00 | 0.00 | 79 | 1006.1 |
| 20260506184537 | 20 | 113 | 3.2 | 9.7 | 0.00 | 0.00 | 0.00 | 75 | 1006.2 |
| 20260506183557 | 20 | 90 | 3.2 | 16.1 | 0.00 | 0.00 | 0.00 | 72 | 1006.4 |
| 20260506182617 | 21 | 158 | 3.2 | 9.7 | 0.00 | 0.00 | 0.00 | 70 | 1006.4 |
| 20260506181537 | 21 | 158 | 1.6 | 6.4 | 0.00 | 0.00 | 0.00 | 68 | 1006.4 |
| 20260506180557 | 21 | 113 | 3.2 | 9.7 | 0.00 | 0.00 | 0.00 | 64 | 1006.4 |
| 20260506175537 | 22 | 113 | 6.4 | 16.1 | 0.00 | 0.00 | 0.00 | 62 | 1006.4 |
| 20260506174537 | 22 | 113 | 8.0 | 16.1 | 0.00 | 0.00 | 0.00 | 60 | 1006.3 |
| 20260506173537 | 22 | 113 | 6.4 | 19.3 | 0.00 | 0.00 | 0.00 | 59 | 1006.4 |
| 20260506172638 | 22 | 90 | 4.8 | 12.9 | 0.00 | 0.00 | 0.00 | 59 | 1006.3 |
| 20260506171537 | 22 | 90 | 4.8 | 12.9 | 0.00 | 0.00 | 0.00 | 59 | 1006.6 |
| 20260506170537 | 22 | 90 | 4.8 | 11.3 | 0.00 | 0.00 | 0.00 | 59 | 1006.4 |
| 20260506165537 | 22 | 90 | 3.2 | 11.3 | 0.00 | 0.00 | 0.00 | 60 | 1006.6 |
| 20260506164537 | 22 | 90 | 1.6 | 9.7 | 0.00 | 0.00 | 0.00 | 63 | 1006.7 |
| 20260506163537 | 21 | 90 | 1.6 | 6.4 | 0.00 | 0.00 | 0.00 | 63 | 1006.9 |
| 20260506162537 | 21 | 90 | 3.2 | 9.7 | 0.00 | 0.00 | 0.00 | 63 | 1007.1 |
| 20260506161537 | 21 | 90 | 1.6 | 6.4 | 0.00 | 0.00 | 0.00 | 64 | 1007.1 |
| 20260506160537 | 21 | 90 | 3.2 | 9.7 | 0.00 | 0.00 | 0.00 | 65 | 1007.4 |
| 20260506155537 | 21 | 0.0 | 4.8 | 0.00 | 0.00 | 0.00 | 65 | 1007.6 | |
| 20260506154537 | 21 | 90 | 1.6 | 6.4 | 0.00 | 0.00 | 0.00 | 65 | 1007.8 |
| 20260506153537 | 21 | 135 | 3.2 | 8.0 | 0.00 | 0.00 | 0.00 | 65 | 1007.8 |
| 20260506152557 | 21 | 180 | 3.2 | 9.7 | 0.00 | 0.00 | 0.00 | 65 | 1007.9 |
| 20260506151537 | 21 | 180 | 3.2 | 9.7 | 0.00 | 0.00 | 0.00 | 65 | 1008.1 |
| 20260506150537 | 21 | 90 | 3.2 | 11.3 | 0.00 | 0.00 | 0.00 | 66 | 1008.2 |
| 20260506145537 | 21 | 135 | 1.6 | 6.4 | 0.00 | 0.00 | 0.00 | 68 | 1008.2 |
| 20260506144537 | 21 | 113 | 1.6 | 9.7 | 0.00 | 0.00 | 0.00 | 69 | 1008.3 |
| 20260506143557 | 20 | 135 | 1.6 | 11.3 | 0.00 | 0.00 | 0.00 | 70 | 1008.4 |
| 20260506142557 | 20 | 135 | 1.6 | 12.9 | 0.00 | 0.00 | 0.00 | 72 | 1008.3 |
| 20260506141537 | 20 | 203 | 1.6 | 4.8 | 0.00 | 0.00 | 0.00 | 71 | 1008.3 |
| 20260506140537 | 20 | 90 | 4.8 | 11.3 | 0.00 | 0.00 | 0.00 | 71 | 1008.2 |
| 20260506135537 | 20 | 135 | 1.6 | 4.8 | 0.00 | 0.00 | 0.00 | 73 | 1008.4 |
| 20260506134537 | 19 | 90 | 4.8 | 9.7 | 0.00 | 0.00 | 0.00 | 73 | 1008.4 |
| 20260506133537 | 19 | 158 | 3.2 | 9.7 | 0.00 | 0.00 | 0.00 | 75 | 1008.4 |
| 20260506132537 | 18 | 90 | 3.2 | 12.9 | 0.00 | 0.00 | 0.00 | 76 | 1008.8 |
| 20260506131537 | 18 | 68 | 1.6 | 8.0 | 0.00 | 0.00 | 0.00 | 77 | 1008.9 |
| 20260506130537 | 18 | 135 | 3.2 | 8.0 | 0.00 | 0.00 | 0.00 | 77 | 1008.9 |
| 20260506125557 | 18 | 158 | 1.6 | 8.0 | 0.00 | 0.00 | 0.00 | 78 | 1009.0 |
| 20260506124537 | 18 | 68 | 1.6 | 6.4 | 0.00 | 0.00 | 0.00 | 79 | 1008.9 |
| 20260506123557 | 17 | 68 | 3.2 | 11.3 | 0.00 | 0.00 | 0.00 | 81 | 1008.8 |
| 20260506122557 | 17 | 68 | 3.2 | 11.3 | 0.00 | 0.00 | 0.00 | 81 | 1009.0 |
| 20260506121537 | 17 | 135 | 3.2 | 11.3 | 0.00 | 0.00 | 0.00 | 82 | 1009.1 |
| 20260506120557 | 17 | 135 | 1.6 | 4.8 | 0.00 | 0.00 | 0.00 | 83 | 1009.0 |
| 20260506115537 | 16 | 135 | 3.2 | 8.0 | 0.00 | 0.00 | 0.00 | 84 | 1008.9 |
| 20260506114537 | 16 | 113 | 1.6 | 4.8 | 0.00 | 0.00 | 0.00 | 85 | 1009.1 |
| 20260506113557 | 16 | 0.0 | 1.6 | 0.00 | 0.00 | 0.00 | 85 | 1009.1 | |
| 20260506112537 | 16 | 0.0 | 4.8 | 0.00 | 0.00 | 0.00 | 85 | 1009.4 | |
| 20260506111557 | 16 | 0.0 | 4.8 | 0.00 | 0.00 | 0.00 | 86 | 1009.5 | |
| 20260506110557 | 16 | 90 | 1.6 | 6.4 | 0.00 | 0.00 | 0.00 | 86 | 1009.2 |
| 20260506105539 | 15 | 0.0 | 3.2 | 0.00 | 0.00 | 0.00 | 86 | 1009.3 | |
| 20260506104539 | 15 | 0.0 | 1.6 | 0.00 | 0.00 | 0.00 | 86 | 1009.4 | |
| 20260506103539 | 15 | 0.0 | 4.8 | 0.00 | 0.00 | 0.00 | 86 | 1009.3 | |
| 20260506102539 | 15 | 0.0 | 4.8 | 0.00 | 0.00 | 0.00 | 86 | 1009.2 | |
| 20260506101539 | 15 | 0.0 | 0.0 | 0.00 | 0.00 | 0.00 | 86 | 1009.4 | |
| 20260506100537 | 15 | 0.0 | 0.0 | 0.00 | 0.00 | 0.00 | 85 | 1009.3 | |
| 20260506095559 | 15 | 0.0 | 0.0 | 0.00 | 0.00 | 0.00 | 85 | 1009.3 | |
| 20260506094537 | 15 | 0.0 | 3.2 | 0.00 | 0.00 | 0.00 | 85 | 1009.2 | |
| 20260506093539 | 15 | 0.0 | 0.0 | 0.00 | 0.00 | 0.00 | 84 | 1009.0 | |
| 20260506092557 | 16 | 0.0 | 0.0 | 0.00 | 0.00 | 0.00 | 84 | 1009.2 | |
| 20260506091539 | 16 | 0.0 | 0.0 | 0.00 | 0.00 | 0.00 | 83 | 1009.2 | |
| 20260506090539 | 16 | 0.0 | 1.6 | 0.00 | 0.00 | 0.00 | 82 | 1009.1 | |
| 20260506085539 | 16 | 0.0 | 3.2 | 0.00 | 0.00 | 0.00 | 82 | 1009.2 | |
| 20260506084539 | 16 | 0.0 | 3.2 | 0.00 | 0.00 | 0.00 | 81 | 1009.3 | |
| 20260506083539 | 16 | 0.0 | 0.0 | 0.00 | 0.00 | 0.00 | 80 | 1009.3 | |
| 20260506082619 | 16 | 0.0 | 3.2 | 0.00 | 0.00 | 0.00 | 80 | 1009.4 | |
| 20260506081539 | 16 | 0.0 | 3.2 | 0.00 | 0.00 | 0.00 | 79 | 1009.4 | |
| 20260506080539 | 16 | 0.0 | 3.2 | 0.00 | 0.00 | 0.00 | 79 | 1009.2 | |
| 20260506072539 | 17 | 0.0 | 4.8 | 0.00 | 0.00 | 0.00 | 77 | 1009.1 | |
| 20260506071539 | 17 | 90 | 1.6 | 4.8 | 0.00 | 0.00 | 0.00 | 76 | 1009.0 |
| 20260506071059 | 17 | 0.0 | 3.2 | 0.00 | 0.00 | 0.00 | 75 | 1008.8 | |
| 20260506062038 | 17 | 90 | 1.6 | 9.7 | 0.00 | 0.00 | 0.00 | 72 | 1008.7 |
| 20260506061038 | 18 | 113 | 1.6 | 14.5 | 0.00 | 0.00 | 0.00 | 72 | 1008.7 |